Time;durP1;ratioP1;P1;durP2;ratioP2;P2;SDS_P1;SDS_P2;PMS_P1;PMS_P2;Temp;Humidity;BMP_temperature;BMP_pressure;BME280_temperature;BME280_humidity;BME280_pressure;Samples;Min_cycle;Max_cycle;Signal;HPM_P1;HPM_P2
2022/11/03 00:01:50;;;;;;;5.05;1.73;;;;;;;19.70;47.41;101408.06;5031273;28;20044;-63
2022/11/03 00:04:18;;;;;;;4.40;1.50;;;;;;;19.65;47.78;101397.88;5023931;28;20056;-64
2022/11/03 00:06:46;;;;;;;6.15;1.70;;;;;;;19.68;47.35;101394.16;5024624;28;20034;-64
2022/11/03 00:09:13;;;;;;;6.40;1.58;;;;;;;19.65;47.62;101389.09;5039407;28;20075;-64
2022/11/03 00:11:39;;;;;;;5.88;1.75;;;;;;;19.62;47.43;101384.06;5035963;28;20037;-64
2022/11/03 00:14:06;;;;;;;6.72;2.10;;;;;;;19.58;47.21;101378.13;5029102;28;20138;-64
2022/11/03 00:16:32;;;;;;;5.60;1.35;;;;;;;19.62;47.36;101387.53;5036964;28;20052;-65
2022/11/03 00:18:57;;;;;;;6.78;2.20;;;;;;;19.60;47.37;101378.03;5025033;28;20378;-64
2022/11/03 00:21:23;;;;;;;5.80;1.70;;;;;;;19.57;47.07;101365.91;5044035;28;20059;-64
2022/11/03 00:23:48;;;;;;;7.88;1.92;;;;;;;19.58;47.61;101375.50;5039458;28;20053;-64
2022/11/03 00:26:22;;;;;;;5.90;1.77;;;;;;;19.57;46.98;101376.47;5034680;28;20043;-63
2022/11/03 00:28:50;;;;;;;5.28;1.80;;;;;;;19.55;47.42;101370.44;5037172;28;20029;-65
2022/11/03 00:31:30;;;;;;;7.25;1.83;;;;;;;19.52;47.46;101360.97;5022987;28;20044;-63
2022/11/03 00:33:56;;;;;;;6.10;1.90;;;;;;;19.54;47.26;101361.69;5038120;28;20026;-65
2022/11/03 00:36:29;;;;;;;6.80;2.00;;;;;;;19.51;47.39;101356.66;5022587;28;20025;-64
2022/11/03 00:38:55;;;;;;;5.20;1.57;;;;;;;19.49;47.21;101355.94;5022978;28;20025;-64
2022/11/03 00:41:21;;;;;;;4.80;1.48;;;;;;;19.51;47.32;101347.88;5025607;28;20369;-64
2022/11/03 00:43:48;;;;;;;7.20;2.25;;;;;;;19.47;47.28;101342.00;5042704;28;20047;-64
2022/11/03 00:46:16;;;;;;;5.18;1.40;;;;;;;19.49;47.29;101333.97;5022572;28;20025;-64
2022/11/03 00:48:41;;;;;;;7.03;1.92;;;;;;;19.42;47.12;101328.28;5034055;28;20079;-64
2022/11/03 00:51:11;;;;;;;5.43;1.73;;;;;;;19.46;47.20;101332.38;5024665;28;20096;-64
2022/11/03 00:53:38;;;;;;;5.93;1.88;;;;;;;19.44;47.36;101333.47;5022288;28;20022;-64
2022/11/03 00:56:05;;;;;;;4.65;1.50;;;;;;;19.46;47.70;101336.84;5036555;28;20044;-64
2022/11/03 00:58:31;;;;;;;9.05;1.80;;;;;;;19.41;47.36;101324.00;5042141;28;20033;-64
2022/11/03 01:01:02;;;;;;;5.80;1.70;;;;;;;19.40;47.35;101315.19;5042223;28;20038;-66
2022/11/03 01:03:28;;;;;;;6.25;2.10;;;;;;;19.42;47.44;101315.06;5042413;28;20032;-64
2022/11/03 01:08:37;;;;;;;4.80;1.40;;;;;;;19.38;47.44;101303.09;5041680;28;20116;-65
2022/11/03 01:13:59;;;;;;;4.75;1.50;;;;;;;19.37;47.36;101304.03;5021883;28;20075;-64
2022/11/03 01:16:25;;;;;;;4.80;1.48;;;;;;;19.39;47.47;101299.47;5022249;28;20041;-64
2022/11/03 01:18:51;;;;;;;6.07;1.77;;;;;;;19.35;47.33;101293.59;5037184;28;20516;-65
2022/11/03 01:21:17;;;;;;;5.85;1.40;;;;;;;19.36;47.15;101297.09;5025294;28;20040;-63
2022/11/03 01:23:42;;;;;;;4.10;1.50;;;;;;;19.32;47.33;101291.19;4997576;28;1034589;-63
2022/11/03 01:26:09;;;;;;;5.57;1.63;;;;;;;19.25;47.32;101283.84;5036195;28;20053;-64
2022/11/03 01:28:36;;;;;;;6.13;1.75;;;;;;;19.35;47.28;101292.75;5029377;28;20037;-64
2022/11/03 01:31:16;;;;;;;6.45;1.90;;;;;;;19.34;47.50;101289.28;5039023;28;20057;-65
2022/11/03 01:33:42;;;;;;;4.72;1.48;;;;;;;19.33;47.61;101278.81;5032778;28;20025;-64
2022/11/03 01:36:08;;;;;;;4.95;1.70;;;;;;;19.31;47.44;101280.72;5030486;28;20033;-63
2022/11/03 01:38:34;;;;;;;6.15;1.65;;;;;;;19.28;47.33;101273.03;5042790;28;20025;-64
2022/11/03 01:41:01;;;;;;;5.97;1.70;;;;;;;19.32;47.36;101275.31;5037029;28;20369;-64
2022/11/03 01:43:30;;;;;;;5.03;1.70;;;;;;;19.28;47.25;101258.06;5028921;28;20033;-65
2022/11/03 01:46:27;;;;;;;6.20;1.80;;;;;;;19.32;47.56;101269.22;5028448;28;20111;-64
2022/11/03 01:49:12;;;;;;;6.35;1.70;;;;;;;19.27;47.35;101242.31;5025488;28;20037;-64
2022/11/03 01:51:38;;;;;;;;;;;;;;;19.27;47.59;101259.00;5032565;28;20029;-64
2022/11/03 01:54:08;;;;;;;6.07;1.60;;;;;;;19.28;47.29;101244.84;5031503;28;19917;-65
2022/11/03 01:56:38;;;;;;;7.57;1.85;;;;;;;19.24;47.21;101237.28;5022322;28;20101;-64
2022/11/03 01:59:03;;;;;;;5.45;1.48;;;;;;;19.27;47.50;101243.16;5022486;28;20462;-64
2022/11/03 02:01:30;;;;;;;5.68;1.38;;;;;;;19.24;47.40;101239.91;5031291;28;20055;-64
2022/11/03 02:04:08;;;;;;;4.00;1.20;;;;;;;19.25;47.63;101239.78;5022253;28;20798;-64
2022/11/03 02:06:35;;;;;;;4.40;1.35;;;;;;;19.23;47.46;101235.59;5031126;28;20111;-62
2022/11/03 02:09:06;;;;;;;3.63;1.30;;;;;;;19.21;47.61;101228.59;5033011;28;20029;-63
2022/11/03 02:14:17;;;;;;;4.63;1.55;;;;;;;19.20;47.31;101211.09;5034476;28;20155;-64
2022/11/03 02:16:53;;;;;;;5.35;1.77;;;;;;;19.24;47.32;101230.19;5035525;28;20032;-63
2022/11/03 02:19:42;;;;;;;4.25;1.40;;;;;;;19.23;47.41;101222.38;5035595;28;20041;-63
2022/11/03 02:22:28;;;;;;;4.13;1.50;;;;;;;19.21;47.49;101218.03;5025691;28;20034;-63
2022/11/03 02:25:09;;;;;;;6.13;1.88;;;;;;;19.19;47.35;101209.41;5035348;28;20125;-64
2022/11/03 02:27:34;;;;;;;4.47;1.40;;;;;;;19.18;47.80;101210.38;5036354;28;20040;-65
2022/11/03 02:30:00;;;;;;;4.90;1.63;;;;;;;19.21;47.48;101210.13;5033314;28;20199;-66
2022/11/03 02:32:31;;;;;;;5.20;1.60;;;;;;;19.18;47.56;101206.88;5035938;28;20029;-64
2022/11/03 02:35:04;;;;;;;4.55;1.50;;;;;;;19.21;47.49;101207.47;5039141;28;20047;-63
2022/11/03 02:37:35;;;;;;;6.10;1.50;;;;;;;19.13;47.68;101183.47;5021935;28;20061;-63
2022/11/03 02:40:07;;;;;;;4.25;1.40;;;;;;;19.17;47.24;101177.00;5021378;28;20488;-64
2022/11/03 02:42:36;;;;;;;5.75;2.17;;;;;;;19.16;47.33;101180.59;5021484;28;20033;-64
2022/11/03 02:45:06;;;;;;;5.63;1.42;;;;;;;19.16;47.54;101182.41;5021556;28;20029;-65
2022/11/03 02:47:33;;;;;;;5.95;1.67;;;;;;;19.12;47.40;101163.31;5021689;28;20037;-62
2022/11/03 02:49:58;;;;;;;6.28;1.75;;;;;;;19.14;47.58;101168.47;5040724;28;20094;-64
2022/11/03 02:52:37;;;;;;;4.60;1.52;;;;;;;19.16;47.45;101175.31;5026392;28;20029;-65
2022/11/03 02:55:19;;;;;;;4.45;1.40;;;;;;;19.17;47.38;101173.53;5032324;28;20037;-63
2022/11/03 02:58:23;;;;;;;4.45;1.42;;;;;;;19.17;47.49;101176.16;5041518;28;20033;-64
2022/11/03 03:01:05;;;;;;;5.13;1.55;;;;;;;19.16;47.52;101161.25;5034027;28;20048;-64
2022/11/03 03:03:41;;;;;;;6.55;1.70;;;;;;;19.11;47.54;101153.72;5031255;28;20070;-65
2022/11/03 03:06:28;;;;;;;5.75;1.70;;;;;;;19.12;47.51;101146.63;5021082;28;20819;-65
2022/11/03 03:08:59;;;;;;;4.43;1.40;;;;;;;19.14;47.61;101140.25;5039663;28;20102;-64
2022/11/03 03:11:37;;;;;;;4.93;1.77;;;;;;;19.14;47.71;101137.59;5027411;28;20164;-64
2022/11/03 03:14:12;;;;;;;5.43;1.73;;;;;;;19.14;47.59;101136.78;5034957;28;20210;-64
2022/11/03 03:16:53;;;;;;;6.30;1.75;;;;;;;19.12;47.52;101134.25;5036957;28;20378;-65
2022/11/03 03:19:44;;;;;;;5.55;1.88;;;;;;;19.10;47.67;101138.81;5031028;28;20481;-64
2022/11/03 03:22:23;;;;;;;4.22;1.58;;;;;;;19.09;47.43;101126.59;4996165;28;21126;-64
2022/11/03 03:25:21;;;;;;;5.40;1.27;;;;;;;19.11;47.56;101124.66;5030292;28;20068;-64
2022/11/03 03:27:50;;;;;;;6.88;1.92;;;;;;;19.10;47.67;101122.97;5030201;28;20156;-64
2022/11/03 03:30:17;;;;;;;7.32;2.05;;;;;;;19.08;47.66;101119.63;5035103;28;20057;-64
2022/11/03 03:32:47;;;;;;;5.55;1.70;;;;;;;19.09;47.50;101112.50;5034799;28;20029;-63
2022/11/03 03:35:17;;;;;;;4.57;1.55;;;;;;;19.06;47.64;101115.41;5034903;28;20136;-64
2022/11/03 03:37:47;;;;;;;6.57;1.70;;;;;;;19.07;47.63;101112.63;5033413;28;20091;-64
2022/11/03 03:40:19;;;;;;;4.93;1.60;;;;;;;19.10;47.61;101120.31;5021596;28;20044;-65
2022/11/03 03:42:46;;;;;;;4.47;1.70;;;;;;;19.10;47.61;101116.84;5036932;28;20064;-63
2022/11/03 03:45:12;;;;;;;5.38;1.63;;;;;;;19.08;47.64;101113.50;5025470;28;20033;-63
2022/11/03 03:47:38;;;;;;;4.85;1.50;;;;;;;19.05;47.66;101101.38;5033731;28;20064;-63
2022/11/03 03:50:04;;;;;;;5.68;1.63;;;;;;;19.07;47.63;101088.88;5029210;28;20064;-64
2022/11/03 03:52:32;;;;;;;4.95;1.50;;;;;;;19.05;47.66;101082.03;5031551;28;20966;-65
2022/11/03 03:54:57;;;;;;;5.05;1.40;;;;;;;19.07;47.73;101077.47;5034411;28;20033;-64
2022/11/03 03:57:26;;;;;;;7.45;1.73;;;;;;;19.05;47.78;101074.94;5022183;28;20033;-63
2022/11/03 03:59:51;;;;;;;5.13;1.50;;;;;;;19.08;47.84;101073.88;5032251;28;20504;-62
2022/11/03 04:02:16;;;;;;;4.32;1.55;;;;;;;19.07;47.62;101080.94;5021302;28;20144;-63
2022/11/03 04:04:42;;;;;;;5.10;1.58;;;;;;;19.07;47.70;101080.94;5037564;28;20048;-63
2022/11/03 04:09:51;;;;;;;4.40;1.80;;;;;;;19.06;47.89;101075.78;5038796;28;20476;-64
2022/11/03 04:23:16;;;;;;;6.70;1.45;;;;;;;19.01;47.74;101073.53;5038806;28;20044;-64
2022/11/03 04:25:46;;;;;;;4.50;1.58;;;;;;;19.05;47.75;101071.47;5044150;28;20045;-64
2022/11/03 04:28:14;;;;;;;4.75;1.60;;;;;;;19.02;47.86;101062.00;5029678;28;20025;-64
2022/11/03 04:30:40;;;;;;;6.82;1.70;;;;;;;19.00;47.96;101053.38;5039535;28;20507;-65
2022/11/03 04:33:14;;;;;;;5.68;1.55;;;;;;;19.02;48.04;101048.78;5024267;28;20021;-64
2022/11/03 04:35:43;;;;;;;6.15;1.67;;;;;;;18.99;47.99;101054.31;5025493;28;20034;-64
2022/11/03 04:38:14;;;;;;;3.78;1.30;;;;;;;19.03;47.97;101058.41;5032424;28;20519;-65
2022/11/03 04:40:44;;;;;;;5.43;1.40;;;;;;;18.99;48.00;101044.63;5043000;28;20041;-64
2022/11/03 04:43:14;;;;;;;5.82;1.92;;;;;;;19.03;47.95;101053.13;5041639;28;20035;-64
2022/11/03 04:45:42;;;;;;;5.30;1.30;;;;;;;18.98;48.20;101042.09;5025869;28;20033;-64
2022/11/03 04:48:13;;;;;;;6.72;2.08;;;;;;;19.02;48.14;101035.59;5028485;28;20052;-65
2022/11/03 04:50:40;;;;;;;5.43;1.40;;;;;;;18.98;48.26;101039.47;5030569;28;20088;-62
2022/11/03 04:53:11;;;;;;;3.78;1.20;;;;;;;18.98;48.12;101026.25;5038369;28;20105;-63
2022/11/03 04:55:39;;;;;;;5.00;1.65;;;;;;;19.01;48.12;101041.84;5029961;28;20052;-64
2022/11/03 04:58:18;;;;;;;4.55;1.40;;;;;;;19.01;48.06;101028.63;5042907;28;20377;-66
2022/11/03 05:00:43;;;;;;;5.78;1.83;;;;;;;18.99;48.12;101031.41;5027247;28;20052;-63
2022/11/03 05:03:16;;;;;;;6.15;1.60;;;;;;;18.97;48.32;101014.00;5028590;28;20377;-63
2022/11/03 05:05:41;;;;;;;5.50;1.40;;;;;;;18.99;48.14;101025.28;5032413;28;20048;-64
2022/11/03 05:08:08;;;;;;;6.15;1.60;;;;;;;19.00;48.14;101024.31;5023364;28;20036;-64
2022/11/03 05:10:34;;;;;;;4.35;1.45;;;;;;;19.00;48.11;101021.66;5027977;28;20691;-64
2022/11/03 05:13:00;;;;;;;4.70;1.50;;;;;;;18.99;48.17;101009.41;5032328;28;20729;-64
2022/11/03 05:15:28;;;;;;;4.15;1.40;;;;;;;18.88;48.24;100989.16;5040777;28;20181;-64
2022/11/03 05:17:54;;;;;;;4.57;1.50;;;;;;;18.95;48.16;101000.91;5036481;28;20079;-64
2022/11/03 05:20:33;;;;;;;5.85;1.70;;;;;;;18.93;48.25;100994.94;5025591;28;20068;-63
2022/11/03 05:22:59;;;;;;;4.05;1.52;;;;;;;18.97;48.22;100991.06;5029330;28;20482;-62
2022/11/03 05:25:40;;;;;;;4.03;1.38;;;;;;;18.98;48.35;100991.91;5040249;28;20049;-64
2022/11/03 05:28:27;;;;;;;4.25;1.23;;;;;;;18.95;48.42;100985.06;5040468;28;20385;-64
2022/11/03 05:30:53;;;;;;;5.68;1.65;;;;;;;18.95;48.29;100973.69;5023981;28;20033;-65
2022/11/03 05:33:29;;;;;;;6.10;1.50;;;;;;;18.96;48.35;100973.56;5023929;28;20116;-64
2022/11/03 05:35:56;;;;;;;5.20;1.30;;;;;;;18.94;48.69;100966.72;5032976;28;20050;-64
2022/11/03 05:38:22;;;;;;;6.43;1.73;;;;;;;18.92;48.35;100969.47;5042772;28;20227;-63
2022/11/03 05:40:50;;;;;;;6.07;1.75;;;;;;;18.93;48.50;100965.88;5034136;28;20510;-63
2022/11/03 05:43:17;;;;;;;4.20;1.40;;;;;;;18.94;48.33;100958.78;5036822;28;20532;-65
2022/11/03 05:45:42;;;;;;;6.10;1.70;;;;;;;18.95;48.48;100956.03;5031031;28;20037;-64
2022/11/03 05:48:17;;;;;;;6.18;1.67;;;;;;;18.96;48.66;100951.56;5039409;28;20029;-65
2022/11/03 05:50:43;;;;;;;3.88;1.60;;;;;;;18.96;48.62;100956.84;5035691;28;20033;-63
2022/11/03 05:53:32;;;;;;;5.40;1.75;;;;;;;18.94;48.65;100951.69;5039011;28;20037;-65
2022/11/03 05:56:03;;;;;;;5.25;1.50;;;;;;;18.96;48.71;100941.88;5041043;28;20037;-64
2022/11/03 05:58:39;;;;;;;5.70;1.70;;;;;;;18.96;48.73;100941.00;5035821;28;20042;-63
2022/11/03 06:01:35;;;;;;;4.57;1.45;;;;;;;18.96;48.81;100939.22;5037102;28;20587;-63
2022/11/03 06:04:13;;;;;;;4.85;1.33;;;;;;;18.96;48.64;100941.88;5035188;28;20025;-63
2022/11/03 06:06:38;;;;;;;5.18;1.60;;;;;;;18.95;48.81;100924.34;5028781;28;20366;-65
2022/11/03 06:09:19;;;;;;;4.32;1.42;;;;;;;18.90;48.74;100923.03;5032092;28;20091;-64
2022/11/03 06:11:45;;;;;;;4.25;1.40;;;;;;;18.94;48.74;100927.09;5028602;28;20052;-63
2022/11/03 06:14:22;;;;;;;5.82;1.65;;;;;;;18.94;48.78;100921.81;5027957;28;20472;-64
2022/11/03 06:16:57;;;;;;;4.88;1.55;;;;;;;18.95;48.64;100920.88;5022471;28;20033;-64
2022/11/03 06:19:27;;;;;;;6.38;1.70;;;;;;;18.94;48.83;100919.19;5032937;28;20029;-64
2022/11/03 06:21:57;;;;;;;4.93;1.60;;;;;;;18.91;48.67;100920.25;5026733;28;20037;-63
2022/11/03 06:24:27;;;;;;;5.65;1.33;;;;;;;18.94;48.68;100913.91;5022021;28;20060;-64
2022/11/03 06:26:52;;;;;;;5.22;1.75;;;;;;;18.93;48.71;100905.16;5028387;28;20369;-65
2022/11/03 06:29:19;;;;;;;4.13;1.50;;;;;;;18.90;48.60;100908.03;5025223;28;20029;-63
2022/11/03 06:31:48;;;;;;;6.13;1.50;;;;;;;18.90;48.80;100905.41;5040454;28;20323;-63
2022/11/03 06:34:31;;;;;;;5.28;1.50;;;;;;;18.94;48.72;100911.25;5034917;28;20021;-63
2022/11/03 06:37:00;;;;;;;7.55;1.30;;;;;;;18.90;48.87;100904.53;5030903;28;20365;-64
2022/11/03 06:39:25;;;;;;;4.07;1.42;;;;;;;18.92;49.10;100903.47;5030906;28;21021;-65
2022/11/03 06:41:51;;;;;;;6.05;1.80;;;;;;;18.94;49.12;100898.88;5041589;28;20479;-64
2022/11/03 06:44:25;;;;;;;4.03;1.40;;;;;;;18.97;49.26;100898.63;5041005;28;20464;-65
2022/11/03 06:46:58;;;;;;;5.70;1.70;;;;;;;19.04;49.31;100901.56;5040224;28;20025;-64
2022/11/03 06:49:30;;;;;;;5.60;1.30;;;;;;;19.05;49.38;100886.59;5031383;28;20036;-63
2022/11/03 06:51:56;;;;;;;4.50;1.20;;;;;;;19.07;49.33;100888.09;5037487;28;20250;-63
2022/11/03 06:54:21;;;;;;;4.78;1.30;;;;;;;19.10;49.51;100885.22;5034252;28;20032;-63
2022/11/03 06:56:46;;;;;;;5.43;1.65;;;;;;;19.14;49.14;100901.66;5021265;28;20799;-64
2022/11/03 06:59:14;;;;;;;5.00;1.65;;;;;;;19.13;49.41;100887.59;5021515;28;20033;-63
2022/11/03 07:01:40;;;;;;;6.13;1.77;;;;;;;19.15;49.18;100885.69;5038501;28;20025;-64
2022/11/03 07:04:15;;;;;;;4.82;1.27;;;;;;;19.17;49.18;100888.19;5032207;28;20045;-63
2022/11/03 07:06:42;;;;;;;4.03;1.35;;;;;;;19.20;49.12;100878.19;5027017;28;20457;-63
2022/11/03 07:09:14;;;;;;;4.35;1.50;;;;;;;19.21;49.07;100881.66;5022803;28;20705;-65
2022/11/03 07:11:52;;;;;;;4.80;1.48;;;;;;;19.26;49.11;100876.00;5033839;28;20033;-65
2022/11/03 07:14:21;;;;;;;5.05;1.67;;;;;;;19.27;49.30;100873.22;5021062;28;20040;-65
2022/11/03 07:16:49;;;;;;;4.60;1.20;;;;;;;19.25;49.25;100861.94;5026621;28;20936;-64
2022/11/03 07:19:22;;;;;;;5.22;1.58;;;;;;;19.30;49.00;100866.84;5021328;28;20062;-64
2022/11/03 07:21:50;;;;;;;6.28;1.58;;;;;;;19.19;48.34;100851.91;5023241;28;20364;-64
2022/11/03 07:24:25;;;;;;;4.63;1.35;;;;;;;19.27;48.82;100854.72;5035065;28;20855;-65
2022/11/03 07:27:20;;;;;;;4.45;1.50;;;;;;;19.29;48.93;100860.69;5021447;28;20075;-65
2022/11/03 07:29:46;;;;;;;;;;;;;;;19.28;48.77;100856.41;5023412;28;20025;-64
2022/11/03 07:32:17;;;;;;;5.03;1.50;;;;;;;19.35;48.91;100848.78;5023858;28;19939;-63
2022/11/03 07:34:44;;;;;;;5.55;1.63;;;;;;;19.31;49.14;100848.22;5040944;28;20037;-64
2022/11/03 07:37:22;;;;;;;4.32;1.35;;;;;;;19.36;48.89;100838.06;5026933;28;20396;-64
2022/11/03 07:39:49;;;;;;;5.97;1.65;;;;;;;19.37;49.34;100836.25;5021085;28;20658;-63
2022/11/03 07:42:21;;;;;;;4.10;1.30;;;;;;;19.44;49.27;100844.50;5026010;28;20029;-65
2022/11/03 07:44:47;;;;;;;6.45;1.63;;;;;;;19.41;49.30;100840.31;5039450;28;20025;-63
2022/11/03 07:47:17;;;;;;;5.22;1.27;;;;;;;19.45;49.35;100854.09;5050756;28;20029;-65
2022/11/03 07:49:44;;;;;;;4.90;1.70;;;;;;;19.45;49.52;100849.66;5022341;28;20907;-64
2022/11/03 07:52:13;;;;;;;4.07;1.38;;;;;;;19.47;49.48;100862.72;5041620;28;20034;-65
2022/11/03 07:54:38;;;;;;;4.85;1.30;;;;;;;19.47;49.18;100855.66;5044495;28;20442;-64
2022/11/03 07:57:20;;;;;;;4.97;1.60;;;;;;;19.47;49.37;100853.00;5025626;28;20120;-64
2022/11/03 07:59:49;;;;;;;4.97;1.55;;;;;;;19.48;49.43;100865.25;5037860;28;20036;-69
2022/11/03 08:02:31;;;;;;;6.30;1.60;;;;;;;19.51;49.70;100856.22;5044137;28;20024;-68
2022/11/03 08:04:57;;;;;;;4.22;1.25;;;;;;;19.46;49.85;100840.75;5036033;28;21012;-65
2022/11/03 08:07:23;;;;;;;4.38;1.52;;;;;;;19.50;49.85;100847.47;5038423;28;20034;-65
2022/11/03 08:09:48;;;;;;;5.32;1.67;;;;;;;19.52;49.89;100839.41;5031968;28;20033;-63
2022/11/03 08:12:13;;;;;;;5.07;1.55;;;;;;;19.50;49.92;100822.81;5041123;28;20029;-65
2022/11/03 08:14:38;;;;;;;4.50;1.40;;;;;;;19.51;49.92;100829.78;5024270;28;20042;-65
2022/11/03 08:17:04;;;;;;;4.07;1.30;;;;;;;19.52;50.11;100829.66;5041523;28;20036;-66
2022/11/03 08:19:29;;;;;;;4.97;1.25;;;;;;;19.51;50.00;100808.63;5044184;28;20261;-65
2022/11/03 08:21:55;;;;;;;6.28;1.70;;;;;;;19.48;50.19;100795.69;5028315;28;20075;-66
2022/11/03 08:24:21;;;;;;;4.90;1.77;;;;;;;19.57;50.17;100806.28;5042193;28;20055;-66
2022/11/03 08:26:46;;;;;;;5.57;1.77;;;;;;;19.53;49.61;100791.66;5031304;28;20996;-64
2022/11/03 08:29:11;;;;;;;3.55;1.35;;;;;;;19.54;49.70;100790.69;5024277;28;20029;-64
2022/11/03 08:31:37;;;;;;;4.97;1.50;;;;;;;19.58;50.16;100791.25;5031211;28;20169;-64
2022/11/03 08:34:02;;;;;;;5.18;1.30;;;;;;;19.58;50.08;100789.47;5043946;28;20111;-64
2022/11/03 08:36:27;;;;;;;4.93;1.30;;;;;;;19.61;50.24;100776.94;5043771;28;20614;-64
2022/11/03 08:38:53;;;;;;;3.90;1.20;;;;;;;19.56;50.04;100758.84;5043885;28;20033;-64
2022/11/03 08:41:18;;;;;;;6.73;1.97;;;;;;;19.59;50.05;100758.56;5042811;28;20044;-64
2022/11/03 08:43:43;;;;;;;5.07;1.50;;;;;;;19.63;50.06;100745.91;5024076;28;20271;-64
2022/11/03 08:46:08;;;;;;;4.77;1.53;;;;;;;19.64;50.26;100734.38;5039278;28;21187;-63
2022/11/03 08:48:34;;;;;;;4.68;1.50;;;;;;;19.64;50.30;100729.09;5024494;28;20375;-64
2022/11/03 08:50:59;;;;;;;5.63;1.45;;;;;;;19.66;50.13;100729.78;5030303;28;20549;-69
2022/11/03 08:53:25;;;;;;;5.47;1.70;;;;;;;19.67;50.16;100719.06;5029293;28;20037;-68
2022/11/03 08:55:52;;;;;;;5.85;1.55;;;;;;;19.72;50.32;100726.59;5029305;28;20034;-68
2022/11/03 08:58:17;;;;;;;4.75;1.55;;;;;;;19.73;50.19;100715.88;5023848;28;20107;-68
2022/11/03 09:00:42;;;;;;;3.15;1.30;;;;;;;19.75;50.03;100707.81;5031716;28;20059;-71
2022/11/03 09:03:08;;;;;;;8.30;1.83;;;;;;;19.81;50.03;100696.72;5029307;28;20090;-67
2022/11/03 09:05:33;;;;;;;3.55;1.40;;;;;;;19.83;49.98;100684.16;5039920;28;20119;-69
2022/11/03 09:07:58;;;;;;;5.63;1.77;;;;;;;19.84;50.04;100680.56;5025014;28;20832;-68
2022/11/03 09:10:24;;;;;;;3.92;1.10;;;;;;;19.86;49.95;100670.66;5025651;28;20114;-69
2022/11/03 09:12:49;;;;;;;4.95;1.42;;;;;;;19.87;50.01;100661.78;5034116;28;20048;-69
2022/11/03 09:15:15;;;;;;;5.82;1.48;;;;;;;19.86;49.97;100661.91;5039224;28;20883;-67
2022/11/03 09:17:40;;;;;;;4.65;1.38;;;;;;;19.88;49.74;100662.59;5039691;28;20151;-68
2022/11/03 09:20:06;;;;;;;5.13;1.40;;;;;;;19.88;49.56;100650.19;5023096;28;20048;-67
2022/11/03 09:22:31;;;;;;;5.57;1.42;;;;;;;19.84;50.03;100629.50;5036323;28;20347;-69
2022/11/03 09:24:57;;;;;;;4.70;1.58;;;;;;;19.86;49.87;100630.19;5022422;28;20049;-68
2022/11/03 09:27:22;;;;;;;7.97;2.08;;;;;;;19.88;49.82;100625.56;5028544;28;20092;-67
2022/11/03 09:29:48;;;;;;;5.32;1.50;;;;;;;19.88;50.37;100613.16;5022991;28;20029;-69
2022/11/03 09:32:13;;;;;;;4.63;1.27;;;;;;;19.90;49.96;100605.09;5025981;28;20104;-71
2022/11/03 09:34:38;;;;;;;6.65;1.55;;;;;;;19.96;49.75;100603.72;5022803;28;20384;-71
2022/11/03 09:37:03;;;;;;;7.27;1.60;;;;;;;20.00;49.91;100605.09;5031918;28;20040;-68
2022/11/03 09:39:29;;;;;;;5.67;1.70;;;;;;;20.01;50.15;100591.75;5026380;28;20266;-68
2022/11/03 09:41:56;;;;;;;8.20;1.60;;;;;;;20.02;49.87;100587.28;5022459;28;20616;-69
2022/11/03 09:44:23;;;;;;;6.85;2.13;;;;;;;20.03;49.62;100588.94;5024394;28;20271;-73
2022/11/03 09:46:49;;;;;;;7.28;1.75;;;;;;;20.07;49.96;100588.50;5040450;28;20119;-72
2022/11/03 09:49:16;;;;;;;7.15;2.97;;;;;;;20.12;49.61;100577.47;5035581;28;20052;-74
2022/11/03 09:51:42;;;;;;;3.13;1.30;;;;;;;20.13;49.59;100579.16;5030470;28;20033;-74
2022/11/03 09:54:14;;;;;;;4.90;1.52;;;;;;;20.17;49.61;100574.41;5037571;28;20075;-75
2022/11/03 09:56:40;;;;;;;5.43;1.60;;;;;;;20.18;49.74;100570.78;5026409;28;20169;-67
2022/11/03 09:59:21;;;;;;;4.47;1.20;;;;;;;20.15;49.41;100571.06;5028290;28;20375;-68
2022/11/03 10:01:49;;;;;;;5.40;1.52;;;;;;;20.17;49.60;100559.38;5037866;28;20512;-72
2022/11/03 10:04:18;;;;;;;5.57;1.38;;;;;;;20.21;49.32;100562.56;5036869;28;20362;-74
2022/11/03 10:06:44;;;;;;;5.60;1.50;;;;;;;20.19;49.50;100556.59;5021504;28;20034;-74
2022/11/03 10:09:14;;;;;;;4.90;1.40;;;;;;;20.22;49.36;100565.06;5028104;28;20038;-74
2022/11/03 10:11:40;;;;;;;5.05;1.48;;;;;;;20.23;49.33;100545.53;5034808;28;20240;-74
2022/11/03 10:14:12;;;;;;;5.88;1.52;;;;;;;20.25;49.04;100545.41;5038131;28;20393;-73
2022/11/03 10:16:39;;;;;;;5.20;1.30;;;;;;;20.28;48.75;100545.97;5021930;28;20025;-74
2022/11/03 10:19:04;;;;;;;6.28;1.73;;;;;;;20.31;49.00;100536.88;5021644;28;20064;-73
2022/11/03 10:21:32;;;;;;;6.25;1.70;;;;;;;20.27;48.85;100525.78;5021646;28;20033;-66
2022/11/03 10:23:58;;;;;;;4.93;1.75;;;;;;;20.26;48.83;100525.91;5031603;28;20045;-76
2022/11/03 10:26:23;;;;;;;6.05;1.58;;;;;;;20.30;48.87;100537.88;5025111;28;20031;-74
2022/11/03 10:28:58;;;;;;;4.17;1.53;;;;;;;20.30;49.18;100522.84;5021609;28;20121;-69
2022/11/03 10:31:31;;;;;;;4.93;1.42;;;;;;;20.25;49.21;100517.16;5021094;28;20299;-68
2022/11/03 10:33:56;;;;;;;4.53;1.40;;;;;;;20.24;49.12;100523.41;5021530;28;20515;-67
2022/11/03 10:36:29;;;;;;;4.87;1.10;;;;;;;20.21;49.34;100507.00;5040670;28;20061;-67
2022/11/03 10:38:55;;;;;;;5.18;1.35;;;;;;;20.20;49.22;100510.63;5040579;28;20539;-67
2022/11/03 10:41:22;;;;;;;4.53;1.15;;;;;;;20.20;49.33;100500.03;5038439;28;20369;-67
2022/11/03 10:44:04;;;;;;;4.38;1.30;;;;;;;20.20;49.20;100506.19;5020845;28;20537;-72
2022/11/03 10:46:30;;;;;;;6.07;1.55;;;;;;;20.20;49.52;100497.38;5021236;28;20068;-70
2022/11/03 10:49:13;;;;;;;5.32;1.30;;;;;;;20.24;49.42;100496.94;5020882;28;20124;-73
2022/11/03 10:51:40;;;;;;;3.55;1.52;;;;;;;20.25;49.34;100493.34;5029121;28;20477;-68
2022/11/03 10:54:11;;;;;;;3.58;1.58;;;;;;;20.26;49.34;100492.34;5023904;28;20029;-69
2022/11/03 10:56:37;;;;;;;6.40;1.60;;;;;;;20.25;49.24;100484.53;5020591;28;20036;-68
2022/11/03 10:59:02;;;;;;;5.07;1.50;;;;;;;20.30;49.13;100482.31;5021151;28;20037;-69
2022/11/03 11:01:27;;;;;;;4.05;1.33;;;;;;;20.30;49.11;100474.38;5020950;28;20033;-69
2022/11/03 11:03:54;;;;;;;5.30;1.30;;;;;;;20.35;49.07;100482.69;5021111;28;20034;-70
2022/11/03 11:06:25;;;;;;;5.88;1.40;;;;;;;20.37;48.86;100477.25;5021484;28;20041;-70
2022/11/03 11:08:56;;;;;;;4.40;1.10;;;;;;;20.36;48.79;100463.19;5039150;28;20040;-69
2022/11/03 11:11:22;;;;;;;6.38;1.48;;;;;;;20.36;49.00;100465.00;5031669;28;20079;-73
2022/11/03 11:14:25;;;;;;;6.20;1.95;;;;;;;20.35;49.15;100464.16;5042801;28;20400;-72
2022/11/03 11:17:00;;;;;;;4.35;1.25;;;;;;;20.33;48.88;100458.19;5031334;28;20036;-72
2022/11/03 11:19:27;;;;;;;4.40;1.30;;;;;;;20.33;48.79;100446.75;5026915;28;20500;-70
2022/11/03 11:21:52;;;;;;;6.18;1.50;;;;;;;20.37;48.87;100448.16;5025025;28;20780;-71
2022/11/03 11:24:42;;;;;;;6.05;1.75;;;;;;;20.38;48.83;100447.19;5020972;28;20119;-69
2022/11/03 11:27:35;;;;;;;3.63;1.27;;;;;;;20.38;49.08;100447.19;5026229;28;20033;-63
2022/11/03 11:30:04;;;;;;;4.35;1.33;;;;;;;20.33;48.90;100428.25;5036524;28;20887;-64
2022/11/03 11:32:38;;;;;;;4.63;1.30;;;;;;;20.33;48.91;100426.44;5032308;28;20038;-64
2022/11/03 11:35:10;;;;;;;4.95;1.55;;;;;;;20.27;49.25;100417.28;5044302;28;20374;-65
2022/11/03 11:37:37;;;;;;;4.00;1.30;;;;;;;20.27;49.29;100408.50;5044615;28;20033;-66
2022/11/03 11:40:11;;;;;;;5.25;1.50;;;;;;;20.25;49.15;100399.88;5041576;28;20037;-64
2022/11/03 11:43:05;;;;;;;6.22;1.33;;;;;;;20.19;49.32;100381.97;5025464;28;20030;-66
2022/11/03 11:46:18;;;;;;;9.63;1.67;;;;;;;20.19;49.59;100388.09;5031720;28;20119;-74
2022/11/03 11:48:43;;;;;;;5.18;1.52;;;;;;;20.19;49.47;100376.69;5029437;28;20033;-74
2022/11/03 11:51:10;;;;;;;5.78;1.63;;;;;;;20.20;49.42;100357.16;5037186;28;20087;-71
2022/11/03 11:53:39;;;;;;;5.18;1.60;;;;;;;20.19;49.13;100344.94;5040637;28;20099;-74
2022/11/03 11:56:09;;;;;;;5.43;1.58;;;;;;;20.19;49.43;100337.81;5035766;28;20034;-72
2022/11/03 11:58:42;;;;;;;4.00;1.40;;;;;;;20.20;49.50;100323.63;5026761;28;20596;-72
2022/11/03 12:01:27;;;;;;;5.95;1.90;;;;;;;20.25;49.54;100324.00;5043559;28;20496;-70
2022/11/03 12:03:55;;;;;;;8.20;2.00;;;;;;;20.23;49.09;100312.72;5034589;28;20029;-69